Etusivu
METAR-TAF:

METAR-TAF

Lentoasemat :

Tuscaloosa, Alabama, Yhdysvallat

Leveyspiiri: 33-12-43N, Pituuspiiri: 087-36-57W, korkeus merenpinnasta: 52 m

Tämänhetkinen sää

Tämä raportti tehtiin 32 minuuttia sitten, kello 21.53 UTC
Tuuli 5 kn pohjoisesta
Lämpötila 17°C
Kosteus 27%
Ilmanpaine 1018 hPa
Näkyvyys: 16.1 km
selkeää

METAR: KTCL 162153Z 35005KT 10SM CLR 17/M02 A3007 RMK AO2 SLP181 T01721022

Aika: 16:25 (22:25 UTC)

Sääennuste

Tämä raportti tehtiin 5 tuntia ja 5 minuuttia sitten, kello 17.20 UTC
Ennuste voimassa 16. päivästä klo 18 UTC - 17. päivään klo 18 UTC
Tuuli 7 kn pohjoisesta
Näkyvyys: 10 km
selkeää
From 17. päivästä klo 0100 UTC
Tuuli 3 kn pohjoisesta/koillisesta
Näkyvyys: 10 km
selkeää

TAF: KTCL 161720Z 1618/1718 36007KT P6SM SKC FM170100 03003KT P6SM SKC

Säähavainnot ja -ennusteet yli 4000 lentoasemalta (METAR- ja TAF-raportit).

Käytössä olevat sääasemat on merkitty karttaan keltaisilla ja punaisilla pisteillä.

Aseta hiiri pisteen päälle nähdäksesi sääaseman nimen.

Klikkaa sitten nähdäksesi säähavainnot ja -ennusteet.

Kartan vaihtaminen: klikkaa mustalla rastilla varustettuja vihreitä pisteitä, niin voit zoomata sisään; viivalla varustettua vihreää pistettä, niin voit zoomata ulos tai vihreitä nuolia, niin pääset viereisille kartoille.


METAR-TAF: